Time;durP1;ratioP1;P1;durP2;ratioP2;P2;SDS_P1;SDS_P2;PMS_P1;PMS_P2;Temp;Humidity;BMP_temperature;BMP_pressure;BME280_temperature;BME280_humidity;BME280_pressure;Samples;Min_cycle;Max_cycle;Signal;HPM_P1;HPM_P2
2022/05/19 00:02:19;;;;;;;3.80;3.17;;;23.90;62.60;;;24.65;nan;100967.59;5049243;28;20632;-64
2022/05/19 00:04:46;;;;;;;2.73;2.57;;;24.00;62.30;;;24.65;nan;100964.09;5049234;28;20656;-65
2022/05/19 00:07:14;;;;;;;2.90;2.50;;;23.90;62.40;;;24.68;nan;100972.53;5046920;28;20895;-65
2022/05/19 00:09:42;;;;;;;2.60;2.40;;;24.00;62.30;;;24.70;nan;100966.19;5037578;28;20993;-64
2022/05/19 00:12:16;;;;;;;3.70;3.40;;;24.00;62.20;;;24.66;nan;100968.38;5055325;28;21019;-65
2022/05/19 00:14:43;;;;;;;4.17;3.03;;;23.90;62.30;;;24.60;nan;100964.66;5050544;28;21248;-65
2022/05/19 00:17:11;;;;;;;4.47;2.90;;;23.90;62.30;;;24.58;nan;100961.38;5048132;28;20675;-68
2022/05/19 00:19:38;;;;;;;3.77;3.47;;;23.90;62.10;;;24.65;nan;100954.25;5050338;28;20643;-65
2022/05/19 00:22:05;;;;;;;3.20;2.70;;;23.90;61.90;;;24.61;nan;100955.66;5047785;28;20636;-65
2022/05/19 00:24:33;;;;;;;3.30;3.07;;;23.90;61.70;;;24.53;nan;100960.31;5048734;28;20644;-68
2022/05/19 00:27:00;;;;;;;2.47;2.30;;;23.80;61.70;;;24.51;nan;100955.13;5049181;28;20639;-66
2022/05/19 00:29:27;;;;;;;10.73;1.97;;;23.80;62.10;;;24.49;nan;100948.38;5049982;28;20646;-65
2022/05/19 00:31:55;;;;;;;3.40;3.10;;;23.80;61.70;;;24.40;nan;100953.03;5032139;28;20758;-67
2022/05/19 00:34:22;;;;;;;2.43;2.17;;;23.70;61.60;;;24.40;nan;100944.19;5048312;28;21252;-65
2022/05/19 00:36:57;;;;;;;4.73;2.27;;;23.60;61.60;;;24.35;nan;100941.25;5048337;28;20655;-65
2022/05/19 00:39:25;;;;;;;2.23;2.13;;;23.70;61.60;;;24.30;nan;100955.16;5048779;28;21180;-66
2022/05/19 00:42:43;;;;;;;10.33;2.33;;;23.60;61.80;;;24.30;nan;100944.50;5049421;28;21211;-64
2022/05/19 00:44:40;;;;;;;8.33;2.53;;;23.60;61.30;;;24.28;nan;100946.53;5048214;28;20663;-62
2022/05/19 00:47:18;;;;;;;0.90;0.90;;;23.60;61.20;;;24.23;nan;100942.78;5038927;28;21017;-65
2022/05/19 00:49:45;;;;;;;2.37;2.27;;;23.60;61.20;;;24.23;nan;100940.13;5040655;28;22268;-65
2022/05/19 00:52:23;;;;;;;3.40;3.10;;;23.50;61.00;;;24.23;nan;100945.47;5055359;28;20636;-64
2022/05/19 00:55:06;;;;;;;2.77;2.50;;;23.50;60.80;;;24.24;nan;100939.09;5042600;28;21036;-64
2022/05/19 00:57:41;;;;;;;3.83;3.17;;;23.50;61.60;;;24.26;nan;100940.56;5052747;28;20659;-65
2022/05/19 01:00:17;;;;;;;2.73;2.20;;;23.60;60.90;;;24.23;nan;100940.13;5049676;28;20634;-65
2022/05/19 01:02:54;;;;;;;2.77;2.57;;;23.50;60.90;;;24.22;nan;100933.97;5051708;28;20615;-65
2022/05/19 01:05:31;;;;;;;3.20;2.27;;;23.50;61.70;;;24.22;nan;100933.97;5046720;28;20631;-64
2022/05/19 01:08:34;;;;;;;5.03;2.90;;;23.50;61.00;;;24.26;nan;100939.72;5047645;28;20662;-65
2022/05/19 01:11:06;;;;;;;5.17;2.80;;;23.50;61.10;;;24.15;nan;100937.59;5039553;28;20649;-68
2022/05/19 01:13:34;;;;;;;3.13;2.87;;;23.40;61.30;;;24.12;nan;100933.47;5050854;28;20663;-67
2022/05/19 01:16:05;;;;;;;3.03;2.80;;;23.40;61.50;;;24.09;nan;100925.84;5053258;28;20639;-65
2022/05/19 01:18:32;;;;;;;2.60;2.40;;;23.40;61.70;;;23.99;nan;100927.97;5048245;28;20670;-68
2022/05/19 01:21:00;;;;;;;3.10;2.80;;;23.30;61.80;;;23.98;nan;100933.50;5032077;28;20628;-65
2022/05/19 01:23:59;;;;;;;2.50;2.40;;;23.20;61.90;;;23.96;nan;100928.34;5051629;28;20701;-65
2022/05/19 01:26:48;;;;;;;3.93;2.73;;;23.30;61.40;;;24.03;nan;100929.25;5051967;28;20638;-65
2022/05/19 01:29:19;;;;;;;2.80;2.60;;;23.30;61.30;;;24.00;nan;100928.81;5030891;28;20613;-65
2022/05/19 01:31:51;;;;;;;3.73;2.90;;;23.30;61.10;;;23.92;nan;100922.56;5030983;28;21181;-67
2022/05/19 01:34:23;;;;;;;3.80;2.53;;;23.20;61.40;;;23.90;nan;100921.09;5031482;28;21284;-67
2022/05/19 01:36:51;;;;;;;2.23;2.13;;;23.10;61.50;;;23.87;nan;100922.31;5047816;28;20663;-67
2022/05/19 01:39:22;;;;;;;2.70;2.50;;;23.10;61.50;;;23.88;nan;100921.31;5052456;28;20979;-67
2022/05/19 01:42:34;;;;;;;5.67;2.73;;;23.10;61.80;;;23.86;nan;100909.19;5050147;28;20632;-65
2022/05/19 01:45:44;;;;;;;3.07;2.77;;;23.10;61.60;;;23.81;nan;100916.91;5051304;28;20662;-65
2022/05/19 01:48:46;;;;;;;2.87;2.60;;;23.10;61.70;;;23.73;nan;100917.03;5052215;28;20989;-67
2022/05/19 01:51:39;;;;;;;2.90;2.70;;;22.90;62.40;;;23.78;nan;100923.47;5049302;28;20627;-67
2022/05/19 01:54:16;;;;;;;3.40;2.60;;;23.00;61.90;;;23.80;nan;100928.59;5050706;28;21023;-65
2022/05/19 01:57:02;;;;;;;3.07;2.77;;;23.10;62.20;;;23.72;nan;100920.72;5051756;28;20635;-64
2022/05/19 01:59:49;;;;;;;2.00;1.90;;;23.10;61.50;;;23.72;nan;100915.41;5050536;28;20631;-65
2022/05/19 02:02:48;;;;;;;2.50;2.40;;;23.00;61.00;;;23.69;nan;100921.09;5049159;28;20651;-65
2022/05/19 02:05:37;;;;;;;1.57;1.47;;;23.10;60.90;;;23.58;nan;100921.56;5050716;28;20627;-65
2022/05/19 02:08:18;;;;;;;2.60;2.40;;;23.00;61.10;;;23.65;nan;100920.66;5050307;28;20635;-65
2022/05/19 02:10:51;;;;;;;3.10;2.90;;;22.90;61.20;;;23.65;nan;100920.66;5050139;28;20623;-64
2022/05/19 02:13:19;;;;;;;6.87;2.83;;;23.00;61.30;;;23.61;nan;100923.88;5068290;22;20659;-63
2022/05/19 02:15:49;;;;;;;3.60;1.80;;;23.00;61.00;;;23.66;nan;100916.16;5016284;28;20640;-65
2022/05/19 02:18:20;;;;;;;4.80;3.10;;;23.00;60.90;;;23.64;nan;100912.81;5049931;28;20660;-64
2022/05/19 02:20:49;;;;;;;4.37;2.60;;;22.90;61.20;;;23.62;nan;100914.84;5050849;28;20678;-67
2022/05/19 02:23:16;;;;;;;3.33;2.57;;;22.90;61.50;;;23.51;nan;100918.03;5052495;28;20643;-65
2022/05/19 02:25:48;;;;;;;1.47;1.37;;;22.80;61.60;;;23.41;nan;100910.31;5071472;28;20610;-66
2022/05/19 02:28:23;;;;;;;3.27;2.87;;;22.70;61.70;;;23.42;nan;100919.13;5034141;28;20635;-63
2022/05/19 02:30:50;;;;;;;2.30;2.10;;;22.60;62.20;;;23.42;nan;100914.63;5067228;28;20620;-66
2022/05/19 02:33:18;;;;;;;2.43;2.33;;;22.60;62.30;;;23.39;nan;100909.69;5049927;28;21027;-66
2022/05/19 02:35:45;;;;;;;5.60;3.03;;;22.70;62.60;;;23.40;nan;100910.50;5049993;28;21192;-65
2022/05/19 02:38:14;;;;;;;2.70;2.50;;;22.60;63.20;;;23.29;nan;100914.44;5050876;28;21045;-67
2022/05/19 02:40:42;;;;;;;4.40;2.90;;;22.50;62.70;;;23.28;nan;100917.25;5055104;28;20670;-65
2022/05/19 02:43:11;;;;;;;2.87;2.63;;;22.50;62.40;;;23.32;nan;100913.25;5063528;28;20632;-66
2022/05/19 02:45:39;;;;;;;3.10;2.57;;;22.50;62.50;;;23.34;nan;100911.25;5030251;28;20685;-66
2022/05/19 02:48:09;;;;;;;3.37;2.23;;;22.60;62.60;;;23.31;nan;100914.25;5051312;28;20642;-65
2022/05/19 02:50:39;;;;;;;2.87;2.40;;;22.60;62.60;;;23.20;nan;100907.56;5059890;28;20692;-66
2022/05/19 02:53:07;;;;;;;3.30;3.00;;;22.40;63.10;;;23.13;nan;100903.97;5050862;28;21192;-65
2022/05/19 02:55:34;;;;;;;3.33;3.03;;;22.40;63.30;;;23.13;nan;100903.97;5056862;28;20804;-68
2022/05/19 02:58:01;;;;;;;2.77;2.57;;;22.40;63.30;;;23.11;nan;100901.50;5051463;28;21008;-66
2022/05/19 03:00:28;;;;;;;2.87;2.67;;;22.40;63.30;;;23.02;nan;100897.28;5052433;28;20940;-67
2022/05/19 03:02:57;;;;;;;2.90;2.70;;;22.20;63.70;;;22.87;nan;100900.97;5066738;28;20632;-66
2022/05/19 03:05:31;;;;;;;2.80;2.60;;;22.10;64.70;;;22.76;nan;100904.09;5048335;28;21255;-68
2022/05/19 03:08:04;;;;;;;3.30;3.00;;;22.00;65.20;;;22.75;nan;100905.91;5049875;28;20645;-67
2022/05/19 03:10:31;;;;;;;3.67;2.73;;;22.00;65.40;;;22.68;nan;100904.16;5050025;28;20631;-67
2022/05/19 03:12:58;;;;;;;2.90;2.70;;;21.90;66.00;;;22.66;nan;100904.31;5048965;28;20636;-67
2022/05/19 03:15:25;;;;;;;2.97;2.67;;;21.80;66.20;;;22.62;nan;100895.06;5030030;28;20663;-68
2022/05/19 03:17:53;;;;;;;3.13;2.90;;;21.80;66.20;;;22.61;nan;100901.41;5028861;28;20668;-67
2022/05/19 03:20:20;;;;;;;2.80;2.60;;;21.80;66.30;;;22.55;nan;100903.94;5042486;28;20990;-65
2022/05/19 03:22:47;;;;;;;3.17;2.97;;;21.80;66.50;;;22.50;nan;100898.31;5038154;28;20635;-67
2022/05/19 03:25:15;;;;;;;4.10;3.70;;;21.70;66.80;;;22.47;nan;100896.84;5048866;28;20655;-67
2022/05/19 03:27:42;;;;;;;3.63;3.40;;;21.70;67.40;;;22.33;nan;100895.00;5050196;28;20725;-67
2022/05/19 03:30:14;;;;;;;3.97;3.67;;;21.60;68.70;;;22.30;nan;100905.97;5034132;28;20639;-67
2022/05/19 03:32:42;;;;;;;7.60;3.83;;;21.50;69.20;;;22.24;nan;100898.72;5050865;28;20650;-68
2022/05/19 03:35:14;;;;;;;4.37;4.00;;;21.40;70.10;;;22.15;nan;100897.13;5052464;28;20670;-67
2022/05/19 03:37:41;;;;;;;6.27;4.10;;;21.30;70.90;;;22.11;nan;100895.81;5050040;28;20664;-70
2022/05/19 03:40:10;;;;;;;6.00;3.70;;;21.30;71.60;;;22.09;nan;100892.53;5052793;28;20626;-67
2022/05/19 03:42:37;;;;;;;4.47;4.13;;;21.30;72.20;;;22.07;nan;100897.19;5069864;28;20634;-68
2022/05/19 03:45:06;;;;;;;8.93;4.50;;;21.30;72.70;;;22.01;nan;100895.25;5046071;28;20667;-66
2022/05/19 03:47:33;;;;;;;4.40;4.10;;;21.20;73.30;;;22.00;nan;100894.41;5047241;28;20635;-68
2022/05/19 03:50:00;;;;;;;7.50;4.50;;;21.20;74.10;;;21.91;nan;100899.97;5063293;28;20638;-67
2022/05/19 03:52:28;;;;;;;5.20;4.70;;;21.10;74.80;;;21.93;nan;100896.16;5031139;28;20631;-70
2022/05/19 03:54:55;;;;;;;4.33;3.97;;;21.10;75.50;;;21.84;nan;100894.56;5049329;28;20659;-67
2022/05/19 03:57:23;;;;;;;4.70;3.73;;;21.00;76.50;;;21.82;nan;100890.38;5066146;28;20666;-68
2022/05/19 03:59:50;;;;;;;5.00;4.50;;;21.10;77.90;;;21.83;nan;100892.06;5051851;28;21193;-69
2022/05/19 04:02:18;;;;;;;4.70;4.27;;;21.00;77.80;;;21.84;nan;100894.56;5060301;28;20634;-67
2022/05/19 04:05:01;;;;;;;7.70;4.20;;;21.00;78.30;;;21.82;nan;100893.03;5068964;28;20699;-67
2022/05/19 04:07:27;;;;;;;4.50;4.10;;;21.00;79.10;;;21.82;nan;100890.38;5048808;28;20642;-67
2022/05/19 04:09:54;;;;;;;4.30;3.90;;;21.00;79.60;;;21.80;nan;100898.53;5053167;28;20642;-67
2022/05/19 04:12:22;;;;;;;4.90;4.47;;;21.00;80.40;;;21.82;nan;100906.31;5050517;28;20619;-65
2022/05/19 04:14:49;;;;;;;5.00;4.40;;;21.00;81.00;;;21.85;nan;100909.47;5013984;28;21122;-67
2022/05/19 04:17:16;;;;;;;4.90;4.20;;;21.10;81.50;;;21.87;nan;100909.31;5069401;28;21214;-67
2022/05/19 04:19:43;;;;;;;4.90;4.40;;;21.10;82.00;;;21.88;nan;100910.94;5069389;28;20619;-67
2022/05/19 04:22:11;;;;;;;6.33;4.60;;;21.10;82.80;;;21.89;nan;100910.75;5052385;28;20642;-67
2022/05/19 04:24:38;;;;;;;4.37;3.97;;;21.20;83.20;;;21.90;nan;100908.94;5051229;28;20994;-67
2022/05/19 04:27:06;;;;;;;5.60;4.17;;;21.20;84.00;;;21.93;nan;100913.91;5068709;28;21042;-67
2022/05/19 04:29:33;;;;;;;6.20;4.37;;;21.20;84.10;;;21.93;nan;100920.06;5050287;28;21199;-67
2022/05/19 04:32:00;;;;;;;11.17;3.73;;;21.20;84.80;;;21.93;nan;100935.16;5053422;28;20623;-67
2022/05/19 04:34:27;;;;;;;6.20;4.50;;;21.20;85.30;;;21.93;nan;100928.03;5068668;28;20669;-68
2022/05/19 04:36:54;;;;;;;4.97;4.57;;;21.20;86.40;;;21.97;nan;100920.53;5057954;28;20634;-68
2022/05/19 04:39:21;;;;;;;5.67;4.93;;;21.30;86.80;;;22.05;nan;100925.78;5057408;28;20678;-68
2022/05/19 04:41:48;;;;;;;6.13;4.93;;;21.30;87.10;;;22.08;nan;100933.41;5057869;28;20620;-68
2022/05/19 04:44:18;;;;;;;5.87;4.50;;;21.40;86.80;;;22.13;nan;100939.00;5065821;28;20673;-68
2022/05/19 04:46:46;;;;;;;8.47;4.67;;;21.40;86.80;;;22.20;nan;100946.09;5078515;28;20633;-68
2022/05/19 04:49:12;;;;;;;7.30;5.03;;;21.50;86.50;;;22.26;nan;100942.72;5072324;28;20746;-70
2022/05/19 04:51:40;;;;;;;6.17;4.07;;;21.60;86.80;;;22.30;nan;100945.84;5057783;28;20742;-68
2022/05/19 04:54:07;;;;;;;5.93;4.17;;;21.60;87.20;;;22.32;nan;100942.00;5056030;28;21049;-68
2022/05/19 04:56:34;;;;;;;5.00;4.50;;;21.70;86.50;;;22.42;nan;100944.44;5057157;28;20636;-67
2022/05/19 04:59:01;;;;;;;4.50;4.10;;;21.70;86.20;;;22.52;nan;100952.16;5052610;28;21248;-68
2022/05/19 05:01:28;;;;;;;4.60;4.20;;;21.80;86.60;;;22.65;nan;100955.88;5062249;28;20634;-67
2022/05/19 05:03:59;;;;;;;8.67;4.47;;;21.90;86.20;;;22.88;nan;100959.31;5058409;28;21466;-67
2022/05/19 05:06:26;;;;;;;4.27;3.80;;;22.20;85.20;;;23.17;nan;100958.50;5054405;28;20978;-67
2022/05/19 05:08:53;;;;;;;4.17;3.87;;;22.50;84.20;;;23.47;nan;100954.84;5051812;28;20642;-67
2022/05/19 05:11:20;;;;;;;5.67;3.70;;;22.90;82.70;;;23.73;nan;100963.16;5052092;28;20627;-67
2022/05/19 05:13:47;;;;;;;4.10;3.70;;;23.20;80.90;;;23.97;nan;100961.16;5057416;28;20689;-66
2022/05/19 05:16:14;;;;;;;3.83;3.53;;;23.40;79.40;;;24.16;nan;100961.41;5055563;28;21181;-67
2022/05/19 05:18:41;;;;;;;4.40;4.00;;;23.60;78.00;;;24.36;nan;100965.06;5050884;28;20675;-68
2022/05/19 05:21:11;;;;;;;4.30;3.90;;;23.80;77.00;;;24.56;nan;100951.91;5056465;28;20700;-65
2022/05/19 05:23:38;;;;;;;4.63;4.13;;;24.10;76.90;;;24.84;nan;100960.78;5059995;28;20670;-68
2022/05/19 05:26:06;;;;;;;5.07;3.90;;;24.20;75.90;;;25.01;nan;100962.13;5051870;28;20618;-68
2022/05/19 05:28:33;;;;;;;3.70;3.40;;;24.40;74.50;;;25.17;nan;100963.66;5061455;28;20640;-67
2022/05/19 05:31:00;;;;;;;3.67;3.43;;;24.60;73.60;;;25.31;nan;100965.38;5054245;28;20615;-68
2022/05/19 05:33:28;;;;;;;4.63;4.20;;;24.70;72.70;;;25.47;nan;100966.94;5060436;28;20654;-70
2022/05/19 05:35:56;;;;;;;5.73;4.07;;;24.90;72.30;;;25.67;nan;100957.97;5064157;28;20627;-68
2022/05/19 05:38:22;;;;;;;5.60;3.47;;;25.10;71.60;;;25.83;nan;100957.59;5051743;28;20737;-68
2022/05/19 05:40:50;;;;;;;3.83;3.47;;;25.20;71.30;;;26.07;nan;100970.41;5034042;28;20608;-69
2022/05/19 05:43:20;;;;;;;4.20;3.90;;;25.50;70.50;;;26.38;nan;100967.19;5051281;28;20639;-69
2022/05/19 05:45:49;;;;;;;5.10;4.10;;;25.80;69.40;;;26.71;nan;100967.19;5051476;28;20634;-68
2022/05/19 05:48:17;;;;;;;3.60;3.40;;;26.20;68.10;;;26.94;nan;100972.94;5051735;28;20993;-67
2022/05/19 05:50:44;;;;;;;3.73;3.43;;;26.40;67.30;;;27.26;nan;100969.38;5053526;28;20640;-69
2022/05/19 05:53:11;;;;;;;5.40;4.00;;;26.70;66.20;;;27.43;nan;100973.28;5056486;28;20622;-67
2022/05/19 05:55:41;;;;;;;4.80;3.33;;;27.00;65.30;;;27.62;nan;100969.69;5055910;28;21188;-71
2022/05/19 05:58:10;;;;;;;2.97;2.87;;;27.10;64.10;;;27.75;nan;100971.47;5051055;28;20670;-70
2022/05/19 06:00:39;;;;;;;4.60;3.60;;;27.30;63.60;;;27.90;nan;100971.22;5068537;28;20634;-67
2022/05/19 06:03:06;;;;;;;3.67;3.30;;;27.50;62.80;;;28.39;nan;100979.38;5053956;28;20971;-69
2022/05/19 06:05:33;;;;;;;3.43;3.20;;;27.90;62.40;;;29.08;nan;100973.84;5066806;28;20636;-68
2022/05/19 06:08:00;;;;;;;3.67;3.40;;;28.70;60.90;;;29.58;nan;100969.97;5054518;28;20665;-68
2022/05/19 06:10:27;;;;;;;3.93;3.63;;;29.20;59.20;;;30.04;nan;100974.75;5052936;28;20640;-69
2022/05/19 06:12:56;;;;;;;3.30;3.10;;;29.70;58.00;;;30.36;nan;100978.84;5051827;28;20616;-68
2022/05/19 06:15:23;;;;;;;3.63;3.37;;;29.90;57.10;;;31.09;nan;100979.25;5066876;28;20667;-68
2022/05/19 06:17:51;;;;;;;3.10;2.90;;;30.70;56.40;;;31.74;nan;100982.53;5071175;28;20629;-68
2022/05/19 06:20:18;;;;;;;3.43;3.20;;;31.40;54.90;;;32.47;nan;100979.03;5055794;28;20635;-66
2022/05/19 06:22:46;;;;;;;3.40;3.20;;;32.10;54.00;;;33.26;nan;100981.34;5051208;28;20624;-71
2022/05/19 06:25:18;;;;;;;3.17;3.07;;;32.90;52.90;;;34.08;nan;100994.75;5050602;28;20663;-71
2022/05/19 06:27:49;;;;;;;2.87;2.77;;;33.70;51.40;;;34.72;nan;100993.72;5054020;28;20638;-69
2022/05/19 06:30:17;;;;;;;4.17;3.67;;;34.30;49.90;;;35.46;nan;100997.13;5040976;28;20639;-65
2022/05/19 06:32:47;;;;;;;6.17;3.07;;;35.10;49.10;;;36.25;nan;100988.69;5049058;28;20643;-68
2022/05/19 06:35:21;;;;;;;4.33;3.40;;;35.90;47.80;;;36.65;nan;100999.59;5049264;28;20651;-68
2022/05/19 06:37:48;;;;;;;4.40;3.70;;;36.20;46.90;;;37.04;nan;100984.31;5067407;28;20980;-68
2022/05/19 06:40:16;;;;;;;3.67;3.40;;;36.60;46.40;;;36.53;nan;100991.72;5050461;28;21035;-68
2022/05/19 06:42:45;;;;;;;3.97;3.57;;;36.00;46.20;;;36.78;nan;100987.34;5049575;28;21000;-70
2022/05/19 06:45:17;;;;;;;3.10;2.90;;;36.10;46.60;;;37.55;nan;101004.00;5051422;28;20658;-69
2022/05/19 06:47:44;;;;;;;7.43;2.93;;;36.90;45.70;;;38.33;nan;101002.22;5070838;28;20627;-68
2022/05/19 06:50:13;;;;;;;6.20;2.73;;;37.70;44.60;;;38.98;nan;101010.88;5058218;28;20651;-68
2022/05/19 06:52:50;;;;;;;3.33;3.03;;;38.40;43.60;;;38.84;nan;101005.31;5032469;28;21047;-71
2022/05/19 06:55:21;;;;;;;3.50;3.17;;;38.50;42.80;;;39.05;nan;101009.47;5050493;28;20706;-68
2022/05/19 06:57:49;;;;;;;3.23;3.03;;;38.40;42.70;;;38.52;nan;101002.31;5036911;28;20627;-68
2022/05/19 07:00:21;;;;;;;3.47;3.27;;;37.70;43.00;;;39.22;nan;101006.28;5064100;28;20644;-68
2022/05/19 07:02:51;;;;;;;3.27;2.97;;;38.40;42.50;;;;;;5048682;28;21063;-67
2022/05/19 07:05:20;;;;;;;5.87;2.93;;;39.30;42.10;;;;;;5064234;28;20658;-67
2022/05/19 07:07:47;;;;;;;4.70;2.77;;;40.20;41.10;;;;;;5059455;28;21202;-68
2022/05/19 07:10:16;;;;;;;2.83;2.70;;;40.60;40.50;;;;;;5042915;28;20638;-70
2022/05/19 07:12:43;;;;;;;3.03;2.83;;;40.80;40.40;;;41.63;nan;100998.75;5049941;28;21188;-67
2022/05/19 07:15:14;;;;;;;4.83;2.90;;;41.20;39.80;;;41.98;nan;101008.94;5052276;28;20671;-65
2022/05/19 07:17:42;;;;;;;3.00;2.80;;;41.50;39.30;;;42.63;nan;101005.72;5054917;28;20636;-65
2022/05/19 07:22:56;;;;;;;2.60;2.40;;;42.60;38.50;;;43.48;nan;100997.84;5049340;28;20624;-65
2022/05/19 07:25:23;;;;;;;2.13;2.03;;;43.10;36.90;;;43.54;nan;100995.75;5050536;28;20659;-66
2022/05/19 07:27:50;;;;;;;1.83;1.73;;;43.00;36.10;;;42.10;nan;100990.03;5034085;28;20960;-64
2022/05/19 07:30:17;;;;;;;2.50;2.40;;;41.60;36.10;;;41.61;nan;100981.81;5060295;28;21191;-61
2022/05/19 07:32:44;;;;;;;2.20;2.10;;;41.00;36.50;;;41.74;nan;100990.00;5065269;28;20985;-65
2022/05/19 07:35:14;;;;;;;5.53;3.10;;;41.10;36.60;;;40.59;nan;100987.66;5051542;28;20662;-66
2022/05/19 07:37:42;;;;;;;2.97;2.77;;;40.20;38.60;;;41.25;nan;100989.19;5049712;28;20651;-67
2022/05/19 07:40:11;;;;;;;2.87;2.77;;;40.70;38.50;;;42.37;nan;100980.84;5049495;28;20655;-70
2022/05/19 07:42:38;;;;;;;3.40;3.10;;;41.80;38.00;;;41.44;nan;100984.41;5029065;28;21011;-71
2022/05/19 07:45:06;;;;;;;2.83;2.40;;;41.30;36.50;;;41.86;nan;100984.00;5054106;28;20639;-69
2022/05/19 07:47:34;;;;;;;2.40;2.30;;;41.30;36.50;;;41.12;nan;100988.03;5033095;28;20632;-64
2022/05/19 07:50:02;;;;;;;2.90;2.70;;;40.70;36.40;;;41.58;nan;100993.38;5048760;28;20967;-64
2022/05/19 07:52:33;;;;;;;2.27;2.17;;;41.20;35.90;;;41.95;nan;100993.13;5044166;28;20632;-66
2022/05/19 07:55:00;;;;;;;2.57;2.37;;;41.20;36.20;;;41.89;nan;100991.63;5050652;28;21251;-67
2022/05/19 07:57:28;;;;;;;2.30;2.20;;;41.20;36.30;;;40.80;nan;100985.34;5054226;28;20985;-70
2022/05/19 07:59:55;;;;;;;4.93;2.40;;;40.20;36.40;;;40.11;nan;100975.31;5068589;28;20991;-67
2022/05/19 08:02:23;;;;;;;2.70;2.20;;;39.50;37.50;;;39.44;nan;100971.09;5055849;28;22061;-67
2022/05/19 08:04:49;;;;;;;2.00;1.90;;;38.70;38.00;;;39.13;nan;100978.81;5053709;28;20667;-68
2022/05/19 08:07:17;;;;;;;2.27;2.10;;;38.70;38.00;;;39.35;nan;100973.66;5053587;28;20626;-63
2022/05/19 08:15:36;;;;;;;3.37;3.07;;;38.70;38.30;;;38.77;nan;100974.84;5054497;28;21214;-67
2022/05/19 08:18:16;;;;;;;8.37;4.87;;;38.30;38.50;;;39.41;nan;100969.75;5052204;28;20636;-68
2022/05/19 08:20:54;;;;;;;2.40;2.30;;;38.70;38.30;;;39.76;nan;100978.59;5053145;28;20621;-66
2022/05/19 08:23:29;;;;;;;3.07;2.20;;;39.20;38.20;;;40.02;nan;100969.72;5038316;28;20619;-65
2022/05/19 08:25:57;;;;;;;2.73;2.63;;;39.50;37.90;;;40.33;nan;100975.50;5053090;28;20631;-65
2022/05/19 08:28:31;;;;;;;2.50;2.27;;;40.00;37.60;;;41.25;nan;100979.03;5048703;28;20620;-67
2022/05/19 08:31:06;;;;;;;2.23;2.20;;;40.60;37.50;;;42.04;nan;100977.53;5052184;28;20619;-66
2022/05/19 08:33:35;;;;;;;2.63;2.47;;;41.30;37.20;;;42.22;nan;100973.00;5052761;28;20753;-65
2022/05/19 08:36:04;;;;;;;2.57;2.47;;;41.70;36.80;;;42.37;nan;100978.94;5055819;28;20650;-65
2022/05/19 08:38:32;;;;;;;2.87;2.67;;;42.00;36.50;;;42.42;nan;100975.25;5051640;28;20635;-65
2022/05/19 08:41:30;;;;;;;3.33;2.50;;;42.20;36.20;;;43.61;nan;100968.59;5067421;28;20630;-65
2022/05/19 08:44:20;;;;;;;2.33;2.23;;;42.90;36.30;;;42.80;nan;100970.94;5019094;28;20994;-65
2022/05/19 08:46:50;;;;;;;3.97;2.50;;;42.60;35.90;;;42.83;nan;100966.75;5042943;28;20707;-65
2022/05/19 08:49:39;;;;;;;4.73;2.60;;;42.10;36.50;;;42.46;nan;100968.03;5051585;28;21012;-63
2022/05/19 08:52:12;;;;;;;2.93;2.60;;;42.00;36.50;;;41.98;nan;100973.28;5052884;28;20697;-66
2022/05/19 08:54:49;;;;;;;2.70;2.60;;;41.20;37.10;;;41.25;nan;100967.28;5051574;28;20705;-69
2022/05/19 08:57:36;;;;;;;2.73;2.63;;;40.50;37.30;;;41.45;nan;100970.38;5051751;28;20627;-66
2022/05/19 09:00:26;;;;;;;5.37;2.70;;;41.00;37.40;;;41.75;nan;100966.16;5031447;28;20668;-66
2022/05/19 09:03:05;;;;;;;4.07;2.50;;;41.00;37.60;;;41.63;nan;100963.97;5014445;28;20617;-66
2022/05/19 09:06:26;;;;;;;2.90;2.70;;;41.20;37.20;;;41.95;nan;100943.78;5051024;28;20670;-66
2022/05/19 09:09:18;;;;;;;3.33;2.67;;;41.50;37.80;;;40.79;nan;100957.19;5035373;28;20693;-65
2022/05/19 09:12:05;;;;;;;2.73;2.63;;;41.20;37.30;;;42.14;nan;100963.63;5032484;28;21219;-68
2022/05/19 09:14:33;;;;;;;2.97;2.73;;;41.70;37.30;;;41.31;nan;100949.63;5050262;28;20678;-66
2022/05/19 09:17:08;;;;;;;2.67;2.57;;;40.60;37.60;;;41.88;nan;100959.84;5051854;28;21302;-66
2022/05/19 09:19:44;;;;;;;4.87;2.60;;;41.20;37.30;;;41.35;nan;100961.56;5060197;28;20667;-64
2022/05/19 09:22:22;;;;;;;2.83;2.63;;;40.80;37.80;;;41.64;nan;100962.84;5049959;28;20650;-68
2022/05/19 09:24:52;;;;;;;3.20;3.00;;;42.10;36.90;;;43.17;nan;100951.22;5053422;28;20651;-68
2022/05/19 09:27:22;;;;;;;3.30;3.10;;;42.60;37.10;;;44.25;nan;100958.59;5054710;28;20630;-66
2022/05/19 09:29:53;;;;;;;3.23;2.57;;;43.60;36.60;;;45.14;nan;100972.19;5056882;28;20635;-66
2022/05/19 09:32:23;;;;;;;3.13;3.03;;;44.60;35.90;;;44.76;nan;100955.69;5047626;28;21160;-65
2022/05/19 09:34:52;;;;;;;1.80;1.73;;;44.30;36.20;;;44.83;nan;100961.53;5057295;28;20659;-67
2022/05/19 09:37:29;;;;;;;4.80;2.70;;;44.50;36.60;;;43.40;nan;100951.94;5051704;28;20795;-69
2022/05/19 09:40:12;;;;;;;3.50;3.30;;;43.40;36.40;;;44.41;nan;100956.91;5043891;28;20667;-66
2022/05/19 09:43:26;;;;;;;3.80;3.33;;;43.80;36.70;;;43.21;nan;100951.41;5050839;28;20657;-68
2022/05/19 09:46:15;;;;;;;3.90;3.23;;;42.80;37.40;;;42.61;nan;100944.88;5045180;28;20623;-65
2022/05/19 09:48:49;;;;;;;3.30;3.10;;;42.10;37.60;;;42.40;nan;100942.63;5041661;28;20631;-71
2022/05/19 09:51:19;;;;;;;3.40;3.20;;;42.10;38.00;;;42.18;nan;100937.19;5057637;28;20629;-68
2022/05/19 09:53:52;;;;;;;5.53;3.60;;;41.70;38.40;;;42.86;nan;100938.69;5051365;28;20655;-66
2022/05/19 09:56:23;;;;;;;2.90;2.80;;;42.10;38.40;;;43.45;nan;100938.03;5052410;28;20631;-69
2022/05/19 09:59:03;;;;;;;4.73;3.10;;;43.00;37.70;;;44.18;nan;100937.09;5033467;28;20643;-68
2022/05/19 10:01:38;;;;;;;3.50;3.30;;;43.80;37.50;;;43.82;nan;100937.44;5051246;28;20635;-70
2022/05/19 10:04:18;;;;;;;3.03;2.90;;;43.50;37.50;;;43.88;nan;100921.56;5050683;28;20649;-68
2022/05/19 10:07:45;;;;;;;3.00;2.90;;;43.70;37.40;;;42.60;nan;100913.88;5031826;28;20660;-68
2022/05/19 10:10:28;;;;;;;3.33;3.13;;;42.90;37.90;;;42.43;nan;100909.09;5057991;28;20637;-68
2022/05/19 10:13:02;;;;;;;5.60;3.97;;;42.20;38.60;;;42.36;nan;100902.44;5049706;28;20700;-69
2022/05/19 10:16:00;;;;;;;3.97;3.57;;;41.70;39.30;;;42.16;nan;100898.31;5052197;28;20753;-68
2022/05/19 10:18:52;;;;;;;3.60;3.40;;;41.50;39.90;;;40.35;nan;100890.44;5034162;28;20635;-69
2022/05/19 10:21:32;;;;;;;4.03;3.73;;;39.90;40.60;;;38.86;nan;100885.00;5052442;28;20627;-71
2022/05/19 10:24:59;;;;;;;4.07;3.87;;;38.30;42.20;;;37.05;nan;100895.38;5067591;28;20715;-68
2022/05/19 10:31:04;;;;;;;6.07;5.57;;;35.30;45.40;;;35.50;nan;100878.84;5034521;28;20627;-68
2022/05/19 10:34:07;;;;;;;6.33;5.77;;;34.70;46.20;;;35.22;nan;100873.91;5050342;28;20650;-68
2022/05/19 10:37:01;;;;;;;4.67;4.20;;;34.30;46.90;;;34.94;nan;100871.59;5052125;28;20608;-67
2022/05/19 10:40:01;;;;;;;4.43;4.10;;;34.10;47.50;;;34.41;nan;100866.38;5051450;28;21048;-68
2022/05/19 10:43:00;;;;;;;7.60;4.30;;;33.90;48.10;;;34.33;nan;100865.00;5051893;28;21192;-68
2022/05/19 10:45:39;;;;;;;4.73;3.97;;;33.50;48.70;;;33.97;nan;100865.78;5032123;28;20666;-70
2022/05/19 10:48:30;;;;;;;4.53;4.10;;;33.00;49.20;;;33.76;nan;100861.22;5052385;28;20628;-68
2022/05/19 10:51:17;;;;;;;6.50;3.77;;;33.00;49.50;;;33.47;nan;100858.78;5049175;28;20635;-70
2022/05/19 10:54:25;;;;;;;7.40;6.47;;;32.70;50.40;;;33.20;nan;100851.72;5047609;28;20697;-68
2022/05/19 10:57:46;;;;;;;4.73;4.43;;;32.50;50.30;;;33.15;nan;100848.94;5049839;28;20638;-70
2022/05/19 11:00:26;;;;;;;4.53;4.17;;;32.20;51.00;;;33.18;nan;100843.03;5051114;28;20697;-69
2022/05/19 11:03:11;;;;;;;4.80;4.17;;;32.30;51.30;;;33.04;nan;100836.38;5031868;28;20601;-68
2022/05/19 11:05:49;;;;;;;3.90;3.60;;;32.20;51.30;;;33.10;nan;100838.88;5031908;28;21160;-68
2022/05/19 11:09:10;;;;;;;4.47;3.83;;;32.30;51.40;;;32.95;nan;100825.16;5034258;28;20650;-67